Time;durP1;ratioP1;P1;durP2;ratioP2;P2;SDS_P1;SDS_P2;PMS_P1;PMS_P2;Temp;Humidity;BMP_temperature;BMP_pressure;BME280_temperature;BME280_humidity;BME280_pressure;Samples;Min_cycle;Max_cycle;Signal;HPM_P1;HPM_P2
2023/06/06 00:01:55;;;;;;;;;;;14.80;99.90;;;;;;4962947;28;20309;-66
2023/06/06 00:04:27;;;;;;;;;;;14.80;99.90;;;;;;4976150;28;19936;-66
2023/06/06 00:06:54;;;;;;;;;;;14.80;99.90;;;;;;4961208;28;20020;-66
2023/06/06 00:09:26;;;;;;;;;;;14.80;99.90;;;;;;4959009;28;20009;-66
2023/06/06 00:11:58;;;;;;;;;;;14.80;99.90;;;;;;4973996;28;20477;-66
2023/06/06 00:14:30;;;;;;;;;;;14.70;99.90;;;;;;4961601;28;19926;-66
2023/06/06 00:17:02;;;;;;;;;;;14.60;99.90;;;;;;4968490;28;20028;-67
2023/06/06 00:19:35;;;;;;;;;;;14.60;99.90;;;;;;4963030;28;19985;-66
2023/06/06 00:22:02;;;;;;;;;;;14.50;99.90;;;;;;4964280;28;19956;-66
2023/06/06 00:24:29;;;;;;;;;;;14.50;99.90;;;;;;4985260;23;20028;-64
2023/06/06 00:26:56;;;;;;;;;;;14.40;99.90;;;;;;4967599;28;20012;-64
2023/06/06 00:29:28;;;;;;;;;;;14.40;99.90;;;;;;4979335;28;20382;-64
2023/06/06 00:32:00;;;;;;;;;;;14.40;99.90;;;;;;4968340;28;19937;-64
2023/06/06 00:34:32;;;;;;;;;;;14.40;99.90;;;;;;4976736;28;19930;-65
2023/06/06 00:37:04;;;;;;;;;;;14.40;99.90;;;;;;4948758;28;20021;-64
2023/06/06 00:39:35;;;;;;;;;;;14.40;99.90;;;;;;4943460;28;19931;-64
2023/06/06 00:42:02;;;;;;;;;;;14.30;99.90;;;;;;4946819;28;20025;-71
2023/06/06 00:44:34;;;;;;;;;;;14.30;99.90;;;;;;4962097;28;19931;-64
2023/06/06 00:47:01;;;;;;;;;;;14.20;99.90;;;;;;4966060;28;19926;-64
2023/06/06 00:49:35;;;;;;;;;;;14.20;99.90;;;;;;4951340;28;19931;-64
2023/06/06 00:52:08;;;;;;;;;;;14.20;99.90;;;;;;4950814;28;19998;-64
2023/06/06 00:54:40;;;;;;;;;;;14.10;99.90;;;;;;4976392;28;19930;-63
2023/06/06 00:57:07;;;;;;;;;;;14.20;99.90;;;;;;4959568;28;19950;-64
2023/06/06 00:59:40;;;;;;;;;;;14.20;99.90;;;;;;4979387;28;19930;-64
2023/06/06 01:02:17;;;;;;;;;;;14.10;99.90;;;;;;4978674;28;20022;-64
2023/06/06 01:04:44;;;;;;;;;;;14.00;99.90;;;;;;4939786;28;20026;-64
2023/06/06 01:07:16;;;;;;;;;;;14.00;99.90;;;;;;4973340;28;19964;-64
2023/06/06 01:09:48;;;;;;;;;;;13.90;99.90;;;;;;4949244;28;19977;-64
2023/06/06 01:12:20;;;;;;;;;;;13.90;99.90;;;;;;4969424;28;19961;-64
2023/06/06 01:14:57;;;;;;;;;;;13.80;99.90;;;;;;4950265;28;19984;-64
2023/06/06 01:17:29;;;;;;;;;;;13.80;99.90;;;;;;4963472;28;20307;-64
2023/06/06 01:19:56;;;;;;;;;;;13.80;99.90;;;;;;4980068;28;19930;-64
2023/06/06 01:22:29;;;;;;;;;;;13.80;99.90;;;;;;4972641;28;19938;-64
2023/06/06 01:25:02;;;;;;;;;;;13.70;99.90;;;;;;4976146;28;19930;-64
2023/06/06 01:27:34;;;;;;;;;;;13.70;99.90;;;;;;4953939;28;20315;-64
2023/06/06 01:30:06;;;;;;;;;;;13.70;99.90;;;;;;4970860;28;19994;-64
2023/06/06 01:32:53;;;;;;;;;;;13.70;99.90;;;;;;4973666;28;20314;-64
2023/06/06 01:35:37;;;;;;;;;;;13.60;99.90;;;;;;4960600;28;20021;-64
2023/06/06 01:38:19;;;;;;;;;;;13.60;99.90;;;;;;4945769;28;19926;-64
2023/06/06 01:40:53;;;;;;;;;;;13.60;99.90;;;;;;4978777;28;20340;-64
2023/06/06 01:43:22;;;;;;;;;;;13.60;99.90;;;;;;4979920;28;20391;-64
2023/06/06 01:45:55;;;;;;;;;;;13.60;99.90;;;;;;4964851;28;19927;-64
2023/06/06 01:48:27;;;;;;;;;;;13.50;99.90;;;;;;4954078;28;19934;-64
2023/06/06 01:50:59;;;;;;;;;;;13.50;99.90;;;;;;4975447;28;19927;-65
2023/06/06 01:53:25;;;;;;;;;;;13.40;99.90;;;;;;4975091;28;20434;-64
2023/06/06 01:55:57;;;;;;;;;;;13.40;99.90;;;;;;4977465;28;19927;-65
2023/06/06 01:58:24;;;;;;;;;;;13.30;99.90;;;;;;4974166;28;19931;-64
2023/06/06 02:00:56;;;;;;;;;;;13.30;99.90;;;;;;4973408;28;20391;-65
2023/06/06 02:03:27;;;;;;;;;;;13.20;99.90;;;;;;4947306;28;20520;-66
2023/06/06 02:06:01;;;;;;;;;;;13.10;99.90;;;;;;4969303;28;19927;-64
2023/06/06 02:08:32;;;;;;;;;;;13.10;99.90;;;;;;4981518;28;20036;-64
2023/06/06 02:11:06;;;;;;;;;;;13.00;99.90;;;;;;4976394;28;19935;-64
2023/06/06 02:13:37;;;;;;;;;;;13.00;99.90;;;;;;4944398;28;20362;-64
2023/06/06 02:16:09;;;;;;;;;;;13.00;99.90;;;;;;4977257;28;20500;-64
2023/06/06 02:18:44;;;;;;;;;;;13.00;99.90;;;;;;4938603;28;19931;-64
2023/06/06 02:21:16;;;;;;;;;;;13.00;99.90;;;;;;4971279;28;20013;-64
2023/06/06 02:23:48;;;;;;;;;;;13.00;99.90;;;;;;4964567;28;19927;-64
2023/06/06 02:26:21;;;;;;;;;;;13.00;99.90;;;;;;4972761;28;19926;-64
2023/06/06 02:28:48;;;;;;;;;;;12.90;99.90;;;;;;4947350;28;19926;-64
2023/06/06 02:31:16;;;;;;;;;;;12.80;99.90;;;;;;4961280;28;19958;-65
2023/06/06 02:33:43;;;;;;;;;;;12.80;99.90;;;;;;4949794;28;20288;-64
2023/06/06 02:36:17;;;;;;;;;;;12.80;99.90;;;;;;4976551;28;19936;-64
2023/06/06 02:38:49;;;;;;;;;;;12.80;99.90;;;;;;4976419;28;19962;-64
2023/06/06 02:41:21;;;;;;;;;;;12.80;99.90;;;;;;4972441;28;19930;-64
2023/06/06 02:43:53;;;;;;;;;;;12.80;99.90;;;;;;4938593;28;19986;-64
2023/06/06 02:46:20;;;;;;;;;;;12.70;99.90;;;;;;4969503;28;19937;-64
2023/06/06 02:48:48;;;;;;;;;;;12.70;99.90;;;;;;4967195;28;20698;-65
2023/06/06 02:51:22;;;;;;;;;;;12.70;99.90;;;;;;4979742;28;20410;-64
2023/06/06 02:53:54;;;;;;;;;;;12.70;99.90;;;;;;4979846;28;19935;-64
2023/06/06 02:56:21;;;;;;;;;;;12.60;99.90;;;;;;4985026;28;19966;-65
2023/06/06 02:58:48;;;;;;;;;;;12.70;99.90;;;;;;4981265;28;19931;-65
2023/06/06 03:01:23;;;;;;;;;;;12.60;99.90;;;;;;4966907;28;19927;-64
2023/06/06 03:03:55;;;;;;;;;;;12.60;99.90;;;;;;4973513;28;19937;-64
2023/06/06 03:06:28;;;;;;;;;;;12.60;99.90;;;;;;4966371;28;20425;-64
2023/06/06 03:08:57;;;;;;;;;;;12.60;99.90;;;;;;4967811;28;19926;-64
2023/06/06 03:11:30;;;;;;;;;;;12.50;99.90;;;;;;4967554;28;19927;-64
2023/06/06 03:14:03;;;;;;;;;;;12.50;99.90;;;;;;4967594;28;19943;-64
2023/06/06 03:16:34;;;;;;;;;;;12.50;99.90;;;;;;4981376;28;20528;-64
2023/06/06 03:19:06;;;;;;;;;;;12.40;99.90;;;;;;4979357;28;19958;-64
2023/06/06 03:21:38;;;;;;;;;;;12.40;99.90;;;;;;4976037;28;19926;-64
2023/06/06 03:24:13;;;;;;;;;;;12.40;99.90;;;;;;4957230;28;20351;-64
2023/06/06 03:26:46;;;;;;;;;;;12.40;99.90;;;;;;4958943;28;20177;-64
2023/06/06 03:29:17;;;;;;;;;;;12.40;99.90;;;;;;4938316;28;19927;-65
2023/06/06 03:31:50;;;;;;;;;;;12.30;99.90;;;;;;4969875;28;19965;-64
2023/06/06 03:34:25;;;;;;;;;;;12.30;99.90;;;;;;4981370;28;19926;-65
2023/06/06 03:36:59;;;;;;;;;;;12.30;99.90;;;;;;4945811;28;20021;-64
2023/06/06 03:39:31;;;;;;;;;;;12.30;99.90;;;;;;4947084;28;19938;-64
2023/06/06 03:42:03;;;;;;;;;;;12.20;99.90;;;;;;4980060;28;19933;-64
2023/06/06 03:44:35;;;;;;;;;;;12.20;99.90;;;;;;4967788;28;19930;-64
2023/06/06 03:47:07;;;;;;;;;;;12.20;99.90;;;;;;4947931;28;19966;-64
2023/06/06 03:49:39;;;;;;;;;;;12.20;99.90;;;;;;4965268;28;20466;-64
2023/06/06 03:52:11;;;;;;;;;;;12.20;99.90;;;;;;4981324;28;20390;-64
2023/06/06 03:54:43;;;;;;;;;;;12.20;99.90;;;;;;4977473;28;19958;-65
2023/06/06 03:57:16;;;;;;;;;;;12.20;99.90;;;;;;4960791;28;19935;-64
2023/06/06 03:59:49;;;;;;;;;;;12.10;99.90;;;;;;4944137;28;19934;-64
2023/06/06 04:02:17;;;;;;;;;;;12.10;99.90;;;;;;4950536;28;19962;-64
2023/06/06 04:04:50;;;;;;;;;;;12.10;99.90;;;;;;4943504;28;19926;-64
2023/06/06 04:07:25;;;;;;;;;;;12.10;99.90;;;;;;4976915;28;20350;-64
2023/06/06 04:09:57;;;;;;;;;;;12.10;99.90;;;;;;4945400;28;19930;-64
2023/06/06 04:12:24;;;;;;;;;;;12.10;99.90;;;;;;4978587;28;19934;-64
2023/06/06 04:14:56;;;;;;;;;;;12.10;99.90;;;;;;4976920;28;19926;-64
2023/06/06 04:17:24;;;;;;;;;;;12.10;99.90;;;;;;4979415;28;20318;-64
2023/06/06 04:19:55;;;;;;;;;;;12.20;99.90;;;;;;4977301;28;19931;-64
2023/06/06 04:22:23;;;;;;;;;;;12.20;99.90;;;;;;4978091;28;19973;-64
2023/06/06 04:24:55;;;;;;;;;;;12.30;99.90;;;;;;4940028;28;20016;-64
2023/06/06 04:27:26;;;;;;;;;;;12.30;99.90;;;;;;4973826;28;19937;-64
2023/06/06 04:29:57;;;;;;;;;;;12.20;99.90;;;;;;4942783;28;19946;-64
2023/06/06 04:32:24;;;;;;;;;;;12.30;99.90;;;;;;4975827;28;19927;-64
2023/06/06 04:34:52;;;;;;;;;;;12.30;99.90;;;;;;4949902;28;19926;-64
2023/06/06 04:37:22;;;;;;;;;;;12.30;99.90;;;;;;4977982;28;20009;-64
2023/06/06 04:39:56;;;;;;;;;;;12.40;99.90;;;;;;4977007;28;20017;-64
2023/06/06 04:42:32;;;;;;;;;;;12.40;99.90;;;;;;4953781;28;20445;-64
2023/06/06 04:45:02;;;;;;;;;;;12.50;99.90;;;;;;4946861;28;19933;-64
2023/06/06 04:47:35;;;;;;;;;;;12.50;99.90;;;;;;4977005;28;19927;-65
2023/06/06 04:50:08;;;;;;;;;;;12.60;99.90;;;;;;4953883;28;20017;-64
2023/06/06 04:52:35;;;;;;;;;;;12.60;99.90;;;;;;4966918;28;19930;-64
2023/06/06 04:55:08;;;;;;;;;;;12.70;99.90;;;;;;4972182;28;20006;-64
2023/06/06 04:57:40;;;;;;;;;;;12.80;99.90;;;;;;4943089;28;20028;-65
2023/06/06 05:00:09;;;;;;;;;;;12.90;99.90;;;;;;4943260;28;19937;-64
2023/06/06 05:02:41;;;;;;;;;;;13.00;99.90;;;;;;4944726;28;19933;-65
2023/06/06 05:05:13;;;;;;;;;;;13.00;99.90;;;;;;4946754;28;19973;-64
2023/06/06 05:07:44;;;;;;;;;;;13.10;99.90;;;;;;4974593;28;20276;-64
2023/06/06 05:10:17;;;;;;;;;;;13.20;99.90;;;;;;4943331;28;19937;-65
2023/06/06 05:12:48;;;;;;;;;;;13.20;99.90;;;;;;4965025;28;19926;-65
2023/06/06 05:15:20;;;;;;;;;;;13.30;99.90;;;;;;4971434;28;19973;-64
2023/06/06 05:17:56;;;;;;;;;;;13.30;99.90;;;;;;4937823;28;19931;-64
2023/06/06 05:20:29;;;;;;;;;;;13.30;99.90;;;;;;4945853;28;19933;-65
2023/06/06 05:23:01;;;;;;;;;;;13.40;99.90;;;;;;4940080;28;19927;-64
2023/06/06 05:25:33;;;;;;;;;;;13.40;99.90;;;;;;4945110;28;19974;-64
2023/06/06 05:28:05;;;;;;;;;;;13.40;99.90;;;;;;4975122;28;19934;-64
2023/06/06 05:30:37;;;;;;;;;;;13.30;99.90;;;;;;4944795;28;19986;-64
2023/06/06 05:33:03;;;;;;;;;;;13.40;99.90;;;;;;4946411;28;19933;-64
2023/06/06 05:35:30;;;;;;;;;;;13.30;99.90;;;;;;4973097;28;19960;-64
2023/06/06 05:37:57;;;;;;;;;;;13.40;99.90;;;;;;4941096;28;19926;-64
2023/06/06 05:40:24;;;;;;;;;;;13.40;99.90;;;;;;4968083;28;19966;-65
2023/06/06 05:42:56;;;;;;;;;;;13.50;99.90;;;;;;4939632;28;19926;-64
2023/06/06 05:45:22;;;;;;;;;;;13.50;99.90;;;;;;4943029;28;20409;-64
2023/06/06 05:47:54;;;;;;;;;;;13.50;99.90;;;;;;4976574;28;20334;-65
2023/06/06 05:50:26;;;;;;;;;;;13.50;99.90;;;;;;4975987;28;19934;-65
2023/06/06 05:52:58;;;;;;;;;;;13.50;99.90;;;;;;4942321;28;19927;-64
2023/06/06 05:55:30;;;;;;;;;;;13.60;99.90;;;;;;4946710;28;20403;-65
2023/06/06 05:58:03;;;;;;;;;;;13.60;99.90;;;;;;4944894;28;20418;-64
2023/06/06 06:00:38;;;;;;;;;;;13.70;99.90;;;;;;4942630;28;19934;-65
2023/06/06 06:03:07;;;;;;;;;;;13.90;99.90;;;;;;4943721;28;20029;-65
2023/06/06 06:05:39;;;;;;;;;;;13.90;99.90;;;;;;4979735;28;19926;-66
2023/06/06 06:08:10;;;;;;;;;;;14.00;99.90;;;;;;4988673;28;19926;-65
2023/06/06 06:10:42;;;;;;;;;;;14.00;99.90;;;;;;4957277;28;19938;-65
2023/06/06 06:13:09;;;;;;;;;;;14.10;99.90;;;;;;4980588;28;20339;-65
2023/06/06 06:15:41;;;;;;;;;;;14.20;99.90;;;;;;4950951;28;20009;-65
2023/06/06 06:18:13;;;;;;;;;;;14.30;99.90;;;;;;4976809;28;20025;-65
2023/06/06 06:20:45;;;;;;;;;;;14.30;99.90;;;;;;4946325;28;19931;-65
2023/06/06 06:23:17;;;;;;;;;;;14.30;99.90;;;;;;4947018;28;19946;-64
2023/06/06 06:25:50;;;;;;;;;;;14.40;99.90;;;;;;4978340;28;19927;-64
2023/06/06 06:28:23;;;;;;;;;;;14.50;99.90;;;;;;4972351;23;20604;-66
2023/06/06 06:30:55;;;;;;;;;;;14.50;99.90;;;;;;4974860;28;19965;-68
2023/06/06 06:33:22;;;;;;;;;;;14.50;99.90;;;;;;4986722;28;20021;-68
2023/06/06 06:35:49;;;;;;;;;;;14.50;99.90;;;;;;4985188;28;19930;-68
2023/06/06 06:38:24;;;;;;;;;;;14.50;99.90;;;;;;4983538;28;19937;-67
2023/06/06 06:40:56;;;;;;;;;;;14.60;99.90;;;;;;4982469;28;19985;-68
2023/06/06 06:43:29;;;;;;;;;;;14.60;99.90;;;;;;4982783;28;20305;-67
2023/06/06 06:46:00;;;;;;;;;;;14.70;99.90;;;;;;4978430;28;19933;-67
2023/06/06 06:48:32;;;;;;;;;;;14.80;99.90;;;;;;4989513;28;19930;-67
2023/06/06 06:51:04;;;;;;;;;;;15.00;99.90;;;;;;4990226;28;19930;-66
2023/06/06 06:53:37;;;;;;;;;;;15.00;99.90;;;;;;4983592;28;19934;-67
2023/06/06 06:56:09;;;;;;;;;;;15.00;99.90;;;;;;4975791;28;19925;-66
2023/06/06 06:58:42;;;;;;;;;;;15.10;99.90;;;;;;4994693;28;19952;-68
2023/06/06 07:01:09;;;;;;;;;;;15.20;99.90;;;;;;4980248;28;20013;-68
2023/06/06 07:03:36;;;;;;;;;;;15.30;99.90;;;;;;4979450;28;20476;-68
2023/06/06 07:06:07;;;;;;;;;;;15.40;99.90;;;;;;4996360;28;19925;-68
2023/06/06 07:08:41;;;;;;;;;;;15.40;99.90;;;;;;4982913;28;20425;-67
2023/06/06 07:11:08;;;;;;;;;;;15.50;99.90;;;;;;4986745;28;19945;-66
2023/06/06 07:13:39;;;;;;;;;;;15.50;99.90;;;;;;4989177;28;20298;-66
2023/06/06 07:16:12;;;;;;;;;;;15.70;99.90;;;;;;4975902;28;20016;-68
2023/06/06 07:18:45;;;;;;;;;;;15.70;99.90;;;;;;4971826;28;19930;-66
2023/06/06 07:21:19;;;;;;;;;;;15.70;99.90;;;;;;4971873;28;19930;-67
2023/06/06 07:23:51;;;;;;;;;;;15.80;99.90;;;;;;4974716;28;19930;-68
2023/06/06 07:26:25;;;;;;;;;;;15.90;99.90;;;;;;4974322;28;19997;-66
2023/06/06 07:28:52;;;;;;;;;;;15.90;99.90;;;;;;4978387;28;19937;-67
2023/06/06 07:31:24;;;;;;;;;;;16.00;99.90;;;;;;4978082;28;19929;-67
2023/06/06 07:33:58;;;;;;;;;;;16.00;99.90;;;;;;4982328;28;20017;-66
2023/06/06 07:36:30;;;;;;;;;;;16.10;99.90;;;;;;4975215;28;19933;-66
2023/06/06 07:39:02;;;;;;;;;;;16.20;99.90;;;;;;4971192;28;20280;-67
2023/06/06 07:41:34;;;;;;;;;;;16.30;99.90;;;;;;4970361;28;19926;-66
2023/06/06 07:44:06;;;;;;;;;;;16.30;99.90;;;;;;4969966;28;19937;-68
2023/06/06 07:46:33;;;;;;;;;;;16.30;99.90;;;;;;4973598;28;19926;-69
2023/06/06 07:49:05;;;;;;;;;;;16.40;99.90;;;;;;4986953;28;20020;-67
2023/06/06 07:51:37;;;;;;;;;;;16.50;99.90;;;;;;4975724;28;19944;-66
2023/06/06 07:54:09;;;;;;;;;;;16.60;99.90;;;;;;4975557;28;19936;-66
2023/06/06 07:56:43;;;;;;;;;;;16.70;99.90;;;;;;4975214;28;20026;-66
2023/06/06 07:59:15;;;;;;;;;;;16.80;99.90;;;;;;4979286;28;20028;-66
2023/06/06 08:01:47;;;;;;;;;;;16.90;99.90;;;;;;4970323;28;19930;-66
2023/06/06 08:04:13;;;;;;;;;;;17.00;99.90;;;;;;4970323;28;20458;-66
2023/06/06 08:06:42;;;;;;;;;;;17.10;99.90;;;;;;4968604;28;19966;-67
2023/06/06 08:09:14;;;;;;;;;;;17.30;99.90;;;;;;4982759;28;20418;-68
2023/06/06 08:11:40;;;;;;;;;;;17.40;99.90;;;;;;4970422;28;20567;-67
2023/06/06 08:14:12;;;;;;;;;;;17.40;99.90;;;;;;4977375;28;19936;-66
2023/06/06 08:16:39;;;;;;;;;;;17.50;99.90;;;;;;4974091;28;19985;-66
2023/06/06 08:19:11;;;;;;;;;;;17.60;99.90;;;;;;4978848;28;19949;-68
2023/06/06 08:21:43;;;;;;;;;;;17.70;99.90;;;;;;4979907;28;20456;-67
2023/06/06 08:24:15;;;;;;;;;;;17.80;99.90;;;;;;4975770;28;19926;-67
2023/06/06 08:26:42;;;;;;;;;;;17.90;99.90;;;;;;4978298;28;19933;-66
2023/06/06 08:29:14;;;;;;;;;;;17.80;99.90;;;;;;4960638;28;20378;-67
2023/06/06 08:31:47;;;;;;;;;;;17.80;99.90;;;;;;4970797;28;20382;-68
2023/06/06 08:34:20;;;;;;;;;;;17.80;99.90;;;;;;4980129;28;20502;-68
2023/06/06 08:36:47;;;;;;;;;;;17.90;99.90;;;;;;4984398;28;20049;-68
2023/06/06 08:39:20;;;;;;;;;;;18.00;99.90;;;;;;4980295;28;19932;-67
2023/06/06 08:41:53;;;;;;;;;;;18.10;99.90;;;;;;4972989;28;19965;-68
2023/06/06 08:44:21;;;;;;;;;;;18.20;99.90;;;;;;4978373;28;19976;-67
2023/06/06 08:46:53;;;;;;;;;;;18.30;99.90;;;;;;4978346;28;19926;-67
2023/06/06 08:49:26;;;;;;;;;;;18.30;99.90;;;;;;4975388;28;20014;-66
2023/06/06 08:51:54;;;;;;;;;;;18.50;99.90;;;;;;4987155;28;19936;-66
2023/06/06 08:54:27;;;;;;;;;;;18.60;99.90;;;;;;4977843;28;19926;-66
2023/06/06 08:57:08;;;;;;;;;;;18.70;99.90;;;;;;4967684;28;20029;-66
2023/06/06 08:59:39;;;;;;;;;;;18.90;99.90;;;;;;4967925;28;19927;-68
2023/06/06 09:02:06;;;;;;;;;;;19.00;99.90;;;;;;4972994;28;19965;-68
2023/06/06 09:04:33;;;;;;;;;;;19.10;99.90;;;;;;4975094;28;19933;-67
2023/06/06 09:07:02;;;;;;;;;;;19.20;99.90;;;;;;4978915;28;20275;-67
2023/06/06 09:09:35;;;;;;;;;;;19.40;99.90;;;;;;4978313;28;19945;-66
2023/06/06 09:12:07;;;;;;;;;;;19.60;99.90;;;;;;4980435;28;19926;-66
2023/06/06 09:14:38;;;;;;;;;;;19.70;99.90;;;;;;4985440;28;20019;-67
2023/06/06 09:17:05;;;;;;;;;;;19.80;99.90;;;;;;4976145;28;19945;-66
2023/06/06 09:19:37;;;;;;;;;;;19.90;99.90;;;;;;4977464;28;19930;-66
2023/06/06 09:22:05;;;;;;;;;;;20.00;99.90;;;;;;4970052;28;20445;-68
2023/06/06 09:24:44;;;;;;;;;;;20.10;99.90;;;;;;4965882;28;19934;-66
2023/06/06 09:27:26;;;;;;;;;;;20.30;99.90;;;;;;4970857;28;20573;-66
2023/06/06 09:29:57;;;;;;;;;;;20.40;99.90;;;;;;4984436;28;20025;-67
2023/06/06 09:32:30;;;;;;;;;;;20.50;99.90;;;;;;4984108;28;19929;-67
2023/06/06 09:35:03;;;;;;;;;;;20.60;99.90;;;;;;4995109;28;20018;-68
2023/06/06 09:37:38;;;;;;;;;;;20.70;99.90;;;;;;4972880;28;20346;-67
2023/06/06 09:40:15;;;;;;;;;;;20.70;99.90;;;;;;4980825;28;19980;-67
2023/06/06 09:42:48;;;;;;;;;;;20.70;99.90;;;;;;4974554;28;20010;-67
2023/06/06 09:45:20;;;;;;;;;;;20.80;99.90;;;;;;4979424;28;19936;-67
2023/06/06 09:47:51;;;;;;;;;;;20.80;99.90;;;;;;4974548;28;19933;-66
2023/06/06 09:50:23;;;;;;;;;;;20.90;99.90;;;;;;4984093;28;20001;-67
2023/06/06 09:52:55;;;;;;;;;;;21.00;99.90;;;;;;4977511;28;20403;-68
2023/06/06 09:55:27;;;;;;;;;;;21.20;99.90;;;;;;4979686;28;19934;-68
2023/06/06 09:58:00;;;;;;;;;;;21.20;99.90;;;;;;4978490;28;19932;-68
2023/06/06 10:00:27;;;;;;;;;;;21.20;99.90;;;;;;4993330;28;19930;-67
2023/06/06 10:03:01;;;;;;;;;;;21.20;99.90;;;;;;4972398;28;19927;-68
2023/06/06 10:05:28;;;;;;;;;;;21.20;99.90;;;;;;4984982;28;19929;-67
2023/06/06 10:08:00;;;;;;;;;;;21.30;99.90;;;;;;4985001;28;19965;-67
2023/06/06 10:10:33;;;;;;;;;;;21.20;99.90;;;;;;4982590;28;20311;-67
2023/06/06 10:13:05;;;;;;;;;;;21.00;99.60;;;;;;4973663;28;19936;-68
2023/06/06 10:15:37;;;;;;;;;;;20.80;99.90;;;;;;4975717;28;19937;-68
2023/06/06 10:18:17;;;;;;;;;;;20.80;99.90;;;;;;4975711;28;19930;-67
2023/06/06 10:20:52;;;;;;;;;;;21.10;99.90;;;;;;4980567;28;20021;-67
2023/06/06 10:23:18;;;;;;;;;;;21.40;99.50;;;;;;4979739;28;19930;-68
2023/06/06 10:25:51;;;;;;;;;;;21.60;98.80;;;;;;4982486;28;19926;-66
2023/06/06 10:28:26;;;;;;;;;;;21.70;98.30;;;;;;4980580;28;20370;-69
2023/06/06 10:31:00;;;;;;;;;;;21.90;97.40;;;;;;4979851;28;19929;-67
2023/06/06 10:33:42;;;;;;;;;;;21.80;97.50;;;;;;4984397;28;19929;-68
2023/06/06 10:36:17;;;;;;;;;;;21.90;96.60;;;;;;4988657;28;20478;-66
2023/06/06 10:39:03;;;;;;;;;;;22.00;97.00;;;;;;4980150;28;19961;-68
2023/06/06 10:41:41;;;;;;;;;;;22.00;97.40;;;;;;4978190;28;19926;-66
2023/06/06 10:44:13;;;;;;;;;;;22.20;97.00;;;;;;4977859;28;20588;-66
2023/06/06 10:46:47;;;;;;;;;;;22.20;96.60;;;;;;4992053;28;20473;-67
2023/06/06 10:49:14;;;;;;;;;;;22.30;95.50;;;;;;4983684;28;20292;-66
2023/06/06 10:51:41;;;;;;;;;;;22.40;95.90;;;;;;4980962;28;19926;-66
2023/06/06 10:54:13;;;;;;;;;;;22.60;96.60;;;;;;4982797;28;19981;-67
2023/06/06 10:56:59;;;;;;;;;;;22.80;94.50;;;;;;4980404;28;19969;-66
2023/06/06 10:59:34;;;;;;;;;;;23.10;95.10;;;;;;4985323;28;19996;-67
2023/06/06 11:02:10;;;;;;;;;;;22.80;94.30;;;;;;4964660;28;19934;-66
2023/06/06 11:04:42;;;;;;;;;;;22.80;94.00;;;;;;4977199;28;19926;-67
2023/06/06 11:07:15;;;;;;;;;;;22.70;93.40;;;;;;4975441;28;20314;-66
2023/06/06 11:09:48;;;;;;;;;;;22.70;93.80;;;;;;4985103;28;20020;-67
2023/06/06 11:12:15;;;;;;;;;;;22.70;92.70;;;;;;4985658;28;20371;-66
2023/06/06 11:15:02;;;;;;;;;;;22.80;91.70;;;;;;4973467;28;19986;-66
2023/06/06 11:17:43;;;;;;;;;;;23.10;91.70;;;;;;4976558;28;20445;-67
2023/06/06 11:20:18;;;;;;;;;;;22.90;91.60;;;;;;4983597;28;19930;-68
2023/06/06 11:22:51;;;;;;;;;;;23.00;91.60;;;;;;4977326;28;19926;-66
2023/06/06 11:25:23;;;;;;;;;;;23.00;91.20;;;;;;4971317;28;19931;-66
2023/06/06 11:27:56;;;;;;;;;;;23.10;92.50;;;;;;4967847;28;19933;-68
2023/06/06 11:30:24;;;;;;;;;;;23.30;91.20;;;;;;4974252;28;19926;-66
2023/06/06 11:32:54;;;;;;;;;;;23.30;90.80;;;;;;4980753;28;19926;-67
2023/06/06 11:35:32;;;;;;;;;;;23.10;90.80;;;;;;4975966;28;19993;-67
2023/06/06 11:38:03;;;;;;;;;;;22.70;92.10;;;;;;4977460;28;19930;-66
2023/06/06 11:40:35;;;;;;;;;;;22.50;92.20;;;;;;4983938;28;19935;-68
2023/06/06 11:43:07;;;;;;;;;;;22.40;92.70;;;;;;4984800;28;19970;-66
2023/06/06 11:45:39;;;;;;;;;;;22.50;91.40;;;;;;4980374;28;19926;-67
2023/06/06 11:48:25;;;;;;;;;;;22.80;91.30;;;;;;4979494;28;19972;-66
2023/06/06 11:50:57;;;;;;;;;;;22.90;91.30;;;;;;4974742;28;19930;-66
2023/06/06 11:53:31;;;;;;;;;;;23.10;90.20;;;;;;4968972;28;19927;-67
2023/06/06 11:56:03;;;;;;;;;;;23.30;91.60;;;;;;4964506;28;19970;-66
2023/06/06 11:58:37;;;;;;;;;;;23.60;90.80;;;;;;4977614;28;19926;-66
2023/06/06 12:01:10;;;;;;;;;;;23.90;90.90;;;;;;4978140;28;19930;-66
2023/06/06 12:03:42;;;;;;;;;;;24.10;89.40;;;;;;4977574;28;19926;-66
2023/06/06 12:06:09;;;;;;;;;;;24.50;89.40;;;;;;4982933;28;19969;-66
2023/06/06 12:08:41;;;;;;;;;;;24.70;87.00;;;;;;4980323;28;19926;-67
2023/06/06 12:11:26;;;;;;;;;;;24.60;86.00;;;;;;4977146;28;19925;-67
2023/06/06 12:13:58;;;;;;;;;;;24.70;85.00;;;;;;4974669;28;20029;-66
2023/06/06 12:16:28;;;;;;;;;;;24.80;84.10;;;;;;4972903;28;20423;-66
2023/06/06 12:19:00;;;;;;;;;;;24.60;83.80;;;;;;4987637;28;19941;-66
2023/06/06 12:21:43;;;;;;;;;;;24.70;85.90;;;;;;4986458;28;19929;-67
2023/06/06 12:24:18;;;;;;;;;;;24.50;85.70;;;;;;4977557;28;19930;-66
2023/06/06 12:26:51;;;;;;;;;;;24.50;84.10;;;;;;4976760;28;19930;-66
2023/06/06 12:29:26;;;;;;;;;;;24.50;83.30;;;;;;4978585;28;19926;-66
2023/06/06 12:32:13;;;;;;;;;;;24.50;85.40;;;;;;4979600;28;19926;-68
2023/06/06 12:34:45;;;;;;;;;;;24.30;84.50;;;;;;4976731;28;19926;-67
2023/06/06 12:37:17;;;;;;;;;;;24.30;86.00;;;;;;4999650;22;19974;-66
2023/06/06 12:39:45;;;;;;;;;;;24.50;86.60;;;;;;4986441;28;19925;-66
2023/06/06 12:42:18;;;;;;;;;;;24.50;87.80;;;;;;4985489;28;19926;-65
2023/06/06 12:44:50;;;;;;;;;;;24.70;88.20;;;;;;4979925;28;19933;-66
2023/06/06 12:47:22;;;;;;;;;;;24.80;86.90;;;;;;4972300;28;19926;-65
2023/06/06 12:49:54;;;;;;;;;;;24.70;88.00;;;;;;4969950;28;19926;-66
2023/06/06 12:52:26;;;;;;;;;;;24.70;87.90;;;;;;4966363;28;19931;-65
2023/06/06 12:54:58;;;;;;;;;;;24.60;87.40;;;;;;4971653;28;19930;-65
2023/06/06 12:57:29;;;;;;;;;;;24.80;86.90;;;;;;4966862;28;20287;-65
2023/06/06 13:00:01;;;;;;;;;;;24.90;86.40;;;;;;4963641;28;20307;-66
2023/06/06 13:02:36;;;;;;;;;;;25.10;85.20;;;;;;4960886;28;20586;-65
2023/06/06 13:05:08;;;;;;;;;;;25.20;84.00;;;;;;4967195;28;19931;-65
2023/06/06 13:07:36;;;;;;;;;;;25.60;83.60;;;;;;4963837;28;19933;-65
2023/06/06 13:10:08;;;;;;;;;;;25.70;82.50;;;;;;4975022;28;20486;-65
2023/06/06 13:12:41;;;;;;;;;;;25.60;85.40;;;;;;4974832;28;20497;-65
2023/06/06 13:15:13;;;;;;;;;;;25.60;84.10;;;;;;4969865;28;19973;-65
2023/06/06 13:17:44;;;;;;;;;;;25.60;83.60;;;;;;4969377;28;19981;-66
2023/06/06 13:20:16;;;;;;;;;;;25.60;84.70;;;;;;4972695;28;19933;-65
2023/06/06 13:22:48;;;;;;;;;;;25.60;83.50;;;;;;4974284;28;19930;-65
2023/06/06 13:25:20;;;;;;;;;;;25.50;84.90;;;;;;4968505;28;19929;-65
2023/06/06 13:27:48;;;;;;;;;;;25.20;84.30;;;;;;4967454;28;19927;-65
2023/06/06 13:30:14;;;;;;;;;;;24.90;85.20;;;;;;4969843;28;20630;-65
2023/06/06 13:32:41;;;;;;;;;;;24.80;85.40;;;;;;4969573;28;19929;-66
2023/06/06 13:35:13;;;;;;;;;;;24.90;86.40;;;;;;4971688;28;20441;-67
2023/06/06 13:37:46;;;;;;;;;;;25.20;86.00;;;;;;4976063;28;19926;-65
2023/06/06 13:40:13;;;;;;;;;;;25.40;86.10;;;;;;4968956;28;19926;-65
2023/06/06 13:42:45;;;;;;;;;;;25.60;86.00;;;;;;4971759;28;19930;-66
2023/06/06 13:45:12;;;;;;;;;;;25.70;87.40;;;;;;4970257;28;19933;-66
2023/06/06 13:47:44;;;;;;;;;;;25.40;86.90;;;;;;4973434;28;19934;-65
2023/06/06 13:50:10;;;;;;;;;;;25.30;87.70;;;;;;4977544;28;19930;-65
2023/06/06 13:52:43;;;;;;;;;;;25.10;88.30;;;;;;4970772;28;20310;-66
2023/06/06 13:55:14;;;;;;;;;;;25.20;88.40;;;;;;4982056;28;19925;-66
2023/06/06 13:57:43;;;;;;;;;;;25.30;88.40;;;;;;4966052;28;20460;-65
2023/06/06 14:00:15;;;;;;;;;;;25.40;87.30;;;;;;4980792;28;20020;-65
2023/06/06 14:02:42;;;;;;;;;;;25.50;85.90;;;;;;4971764;28;19930;-65
2023/06/06 14:05:10;;;;;;;;;;;25.70;86.60;;;;;;4973018;28;19933;-67
2023/06/06 14:07:42;;;;;;;;;;;25.60;85.60;;;;;;4972766;28;20591;-66
2023/06/06 14:10:14;;;;;;;;;;;25.60;85.10;;;;;;4977712;28;19934;-65
2023/06/06 14:12:48;;;;;;;;;;;25.60;85.50;;;;;;4973359;28;20349;-69
2023/06/06 14:15:21;;;;;;;;;;;25.70;85.50;;;;;;4969108;28;19930;-68
2023/06/06 14:17:53;;;;;;;;;;;25.50;85.40;;;;;;4974057;28;19990;-68
2023/06/06 14:20:32;;;;;;;;;;;25.40;84.30;;;;;;4973354;28;19953;-68
2023/06/06 14:23:04;;;;;;;;;;;24.90;83.90;;;;;;4970017;28;19925;-68
2023/06/06 14:25:35;;;;;;;;;;;24.70;86.40;;;;;;4967187;28;19926;-68
2023/06/06 14:28:07;;;;;;;;;;;25.00;86.70;;;;;;4973085;28;19980;-68
2023/06/06 14:30:39;;;;;;;;;;;25.10;85.30;;;;;;4969111;28;19926;-67
2023/06/06 14:33:11;;;;;;;;;;;24.90;86.30;;;;;;4967526;28;19926;-68
2023/06/06 14:35:43;;;;;;;;;;;24.80;87.40;;;;;;4967484;28;19930;-68
2023/06/06 14:38:15;;;;;;;;;;;25.20;88.00;;;;;;4963542;28;19926;-68
2023/06/06 14:40:47;;;;;;;;;;;25.50;85.10;;;;;;4971031;28;19932;-68
2023/06/06 14:43:14;;;;;;;;;;;25.70;85.60;;;;;;4967983;28;19926;-68